Time;durP1;ratioP1;P1;durP2;ratioP2;P2;SDS_P1;SDS_P2;PMS_P1;PMS_P2;Temp;Humidity;BMP_temperature;BMP_pressure;BME280_temperature;BME280_humidity;BME280_pressure;Samples;Min_cycle;Max_cycle;Signal;HPM_P1;HPM_P2
2021/03/17 00:00:42;;;;;;;8.60;2.08;;;;;;;1.74;68.23;102087.78;10061932;28;20397;-63
2021/03/17 00:05:42;;;;;;;7.75;1.40;;;;;;;1.72;68.90;102079.94;10040359;28;20047;-67
2021/03/17 00:10:42;;;;;;;8.82;2.05;;;;;;;1.59;69.39;102085.47;10057506;28;20063;-68
2021/03/17 00:15:41;;;;;;;6.70;1.42;;;;;;;1.52;69.33;102087.41;10044985;29;20044;-68
2021/03/17 00:20:39;;;;;;;8.70;1.85;;;;;;;1.58;68.99;102083.81;10051137;28;20504;-68
2021/03/17 00:25:37;;;;;;;10.57;1.63;;;;;;;1.54;69.40;102088.84;10054514;28;20131;-68
2021/03/17 00:30:38;;;;;;;6.35;1.52;;;;;;;1.47;69.51;102099.69;10059060;28;20507;-66
2021/03/17 00:35:35;;;;;;;14.48;3.38;;;;;;;1.52;69.99;102100.91;10054492;28;20133;-67
2021/03/17 00:40:32;;;;;;;6.72;1.45;;;;;;;1.55;69.88;102090.47;10053249;28;20102;-67
2021/03/17 00:45:28;;;;;;;13.77;1.90;;;;;;;1.52;70.10;102095.50;10056984;29;20067;-65
2021/03/17 00:50:24;;;;;;;7.00;1.40;;;;;;;1.40;71.06;102092.72;10055438;28;20065;-68
2021/03/17 00:55:22;;;;;;;9.98;1.95;;;;;;;1.28;71.05;102100.72;10061809;28;20106;-66
2021/03/17 01:00:19;;;;;;;6.90;1.73;;;;;;;1.30;71.46;102098.63;10061424;28;20054;-67
2021/03/17 01:05:16;;;;;;;8.80;1.30;;;;;;;1.31;71.37;102094.88;10056626;28;20047;-68
2021/03/17 01:10:18;;;;;;;10.45;1.90;;;;;;;1.24;71.75;102099.50;10059978;29;20055;-69
2021/03/17 01:15:19;;;;;;;13.27;1.80;;;;;;;1.29;71.95;102086.19;10066623;28;20415;-68
2021/03/17 01:20:16;;;;;;;11.23;1.92;;;;;;;1.28;72.17;102089.94;10057111;28;20051;-68
2021/03/17 01:25:16;;;;;;;14.95;1.55;;;;;;;1.19;72.75;102092.09;10059796;28;20459;-67
2021/03/17 01:30:12;;;;;;;11.43;1.65;;;;;;;1.23;72.65;102095.16;10063927;28;20058;-67
2021/03/17 01:35:12;;;;;;;12.10;2.22;;;;;;;1.23;72.96;102089.75;10065567;28;20471;-67
2021/03/17 01:40:10;;;;;;;7.38;1.65;;;;;;;1.20;72.80;102099.09;10060680;28;20079;-65
2021/03/17 01:45:13;;;;;;;5.85;1.50;;;;;;;1.21;72.82;102106.16;10055186;28;20448;-69
2021/03/17 01:50:31;;;;;;;13.10;1.70;;;;;;;1.17;72.96;102091.47;10055249;29;20056;-64
2021/03/17 01:55:27;;;;;;;10.60;1.40;;;;;;;1.19;73.15;102102.03;10056385;28;20571;-68
2021/03/17 02:00:23;;;;;;;7.95;1.98;;;;;;;1.21;72.96;102094.56;10062770;28;20073;-68
2021/03/17 02:05:36;;;;;;;7.18;1.55;;;;;;;1.08;73.48;102094.69;10062044;28;20058;-68
2021/03/17 02:10:34;;;;;;;10.63;2.05;;;;;;;1.01;73.66;102087.47;10058384;28;20547;-66
2021/03/17 02:16:07;;;;;;;16.20;2.00;;;;;;;0.98;73.72;102089.78;10060094;28;20035;-67
2021/03/17 02:21:12;;;;;;;14.63;1.88;;;;;;;1.02;73.71;102083.75;10054248;28;20416;-67
2021/03/17 02:26:30;;;;;;;12.40;1.80;;;;;;;1.04;73.92;102078.97;10060017;28;20047;-68
2021/03/17 02:31:49;;;;;;;13.75;2.10;;;;;;;0.90;74.77;102066.63;10067153;28;20047;-68
2021/03/17 02:37:02;;;;;;;12.68;1.65;;;;;;;0.88;75.12;102067.91;10056502;28;20150;-68
2021/03/17 02:42:26;;;;;;;9.30;1.55;;;;;;;0.90;74.83;102076.59;10062501;28;20047;-66
2021/03/17 02:47:25;;;;;;;11.70;1.98;;;;;;;0.88;74.95;102074.09;10048183;29;20047;-67
2021/03/17 02:52:23;;;;;;;7.50;1.90;;;;;;;0.89;74.80;102078.47;10052682;28;20059;-67
2021/03/17 02:57:23;;;;;;;7.28;1.55;;;;;;;0.85;75.09;102079.94;10063373;28;20047;-67
2021/03/17 03:02:21;;;;;;;12.55;2.08;;;;;;;0.89;74.55;102075.78;10056011;28;20063;-67
2021/03/17 03:07:17;;;;;;;7.60;1.60;;;;;;;0.87;75.07;102071.66;10048167;28;20067;-68
2021/03/17 03:12:14;;;;;;;14.10;3.78;;;;;;;0.78;75.23;102089.94;10056345;28;20047;-66
2021/03/17 03:17:13;;;;;;;11.68;1.77;;;;;;;0.86;75.39;102092.38;10049254;28;20099;-67
2021/03/17 03:22:13;;;;;;;9.98;1.73;;;;;;;0.89;74.97;102091.13;10053097;28;20490;-67
2021/03/17 03:27:09;;;;;;;9.07;1.70;;;;;;;0.80;75.37;102098.63;10056588;28;20086;-67
2021/03/17 03:32:06;;;;;;;9.43;1.75;;;;;;;0.76;75.64;102092.03;10050236;28;20624;-66
2021/03/17 03:37:03;;;;;;;11.70;2.42;;;;;;;0.71;75.01;102094.56;10054105;29;20054;-67
2021/03/17 03:41:59;;;;;;;6.88;1.80;;;;;;;0.71;75.30;102094.56;10060051;28;20078;-67
2021/03/17 03:46:55;;;;;;;13.50;1.88;;;;;;;0.60;75.39;102091.53;10054705;28;20047;-66
2021/03/17 03:52:13;;;;;;;8.75;1.77;;;;;;;0.68;75.89;102086.91;10054864;28;20039;-66
2021/03/17 03:57:17;;;;;;;9.52;2.03;;;;;;;0.73;76.15;102092.47;10057564;28;20046;-67
2021/03/17 04:02:23;;;;;;;12.90;2.47;;;;;;;0.61;76.42;102101.25;10057225;29;20043;-68
2021/03/17 04:07:22;;;;;;;14.38;2.15;;;;;;;0.65;76.52;102107.03;10052358;28;20129;-68
2021/03/17 04:12:23;;;;;;;12.93;2.20;;;;;;;0.61;76.11;102116.56;10054791;28;20074;-67
2021/03/17 04:17:27;;;;;;;8.98;1.85;;;;;;;0.55;76.36;102115.56;10063591;28;20083;-67
2021/03/17 04:22:26;;;;;;;9.50;1.60;;;;;;;0.53;76.63;102114.94;10049664;28;20047;-67
2021/03/17 04:27:23;;;;;;;10.43;2.88;;;;;;;0.41;76.58;102127.44;10052669;28;20043;-67
2021/03/17 04:32:20;;;;;;;11.32;2.28;;;;;;;0.35;76.69;102115.69;10052958;28;20111;-67
2021/03/17 04:37:17;;;;;;;13.55;2.50;;;;;;;0.39;76.64;102118.75;10051278;28;20051;-65
2021/03/17 04:42:14;;;;;;;13.10;2.35;;;;;;;0.29;77.15;102123.78;10056519;28;20040;-65
2021/03/17 04:47:12;;;;;;;17.30;3.03;;;;;;;0.26;77.22;102118.84;10062510;28;20051;-65
2021/03/17 04:52:12;;;;;;;8.82;1.90;;;;;;;0.11;77.73;102128.00;10046340;29;20061;-65
2021/03/17 04:57:14;;;;;;;11.45;2.50;;;;;;;0.33;78.02;102130.41;10056523;28;20538;-68
2021/03/17 05:02:11;;;;;;;14.55;2.47;;;;;;;0.25;78.10;102133.31;10061875;28;20043;-67
2021/03/17 05:07:10;;;;;;;17.00;2.40;;;;;;;0.26;78.53;102124.22;10053019;28;20058;-66
2021/03/17 05:12:08;;;;;;;10.77;3.22;;;;;;;0.10;78.43;102131.72;10056490;28;20043;-68
2021/03/17 05:17:05;;;;;;;11.32;2.78;;;;;;;0.05;78.48;102128.84;10059519;28;20103;-68
2021/03/17 05:22:01;;;;;;;15.80;4.10;;;;;;;0.03;78.34;102130.94;10057955;28;20101;-69
2021/03/17 05:27:00;;;;;;;8.98;2.50;;;;;;;0.01;78.11;102133.00;10051579;28;20142;-69
2021/03/17 05:31:56;;;;;;;10.55;3.05;;;;;;;-0.04;78.37;102140.88;10056289;28;20095;-68
2021/03/17 05:36:52;;;;;;;10.63;2.42;;;;;;;-0.07;78.36;102147.53;10065100;28;20051;-65
2021/03/17 05:41:48;;;;;;;14.13;3.03;;;;;;;-0.11;78.99;102145.47;10050337;28;20673;-66
2021/03/17 05:46:44;;;;;;;13.25;3.50;;;;;;;0.12;79.21;102140.41;10042736;28;20043;-63
2021/03/17 05:51:41;;;;;;;11.88;3.92;;;;;;;0.24;79.05;102154.03;10041482;28;20135;-66
2021/03/17 05:56:37;;;;;;;11.90;3.25;;;;;;;0.30;78.87;102160.41;10053532;29;20074;-65
2021/03/17 06:01:34;;;;;;;12.38;2.63;;;;;;;0.38;78.69;102152.09;10051897;29;20079;-69
2021/03/17 06:06:37;;;;;;;12.88;2.92;;;;;;;0.34;79.05;102167.00;10045506;28;20082;-66
2021/03/17 06:11:34;;;;;;;11.00;2.45;;;;;;;0.40;78.93;102163.47;10042726;28;20048;-67
2021/03/17 06:16:32;;;;;;;12.02;2.80;;;;;;;0.46;79.11;102167.97;10047498;29;20514;-66
2021/03/17 06:21:28;;;;;;;11.65;2.90;;;;;;;0.44;79.25;102170.06;10050053;28;20039;-65
2021/03/17 06:26:24;;;;;;;9.20;2.28;;;;;;;0.43;79.15;102179.19;10053232;29;20503;-67
2021/03/17 06:31:21;;;;;;;11.65;3.45;;;;;;;0.48;79.26;102171.28;10063211;28;20114;-65
2021/03/17 06:36:20;;;;;;;16.95;2.83;;;;;;;0.56;78.94;102171.06;10058839;28;20122;-64
2021/03/17 06:41:18;;;;;;;28.65;3.80;;;;;;;0.58;79.31;102168.97;10054606;28;20406;-62
2021/03/17 06:46:19;;;;;;;18.45;3.30;;;;;;;0.70;78.98;102173.69;10056527;28;20047;-65
2021/03/17 06:51:31;;;;;;;18.65;3.25;;;;;;;0.74;79.15;102180.25;10057713;29;20062;-64
2021/03/17 06:56:34;;;;;;;13.25;2.70;;;;;;;0.96;78.57;102175.38;10055804;28;20048;-65
2021/03/17 07:01:32;;;;;;;8.50;2.50;;;;;;;1.01;78.21;102176.34;10053829;29;20051;-67
2021/03/17 07:06:29;;;;;;;18.55;3.15;;;;;;;1.15;78.18;102181.66;10049872;28;20171;-64
2021/03/17 07:11:30;;;;;;;11.45;2.63;;;;;;;1.33;78.05;102187.09;10050324;28;20079;-65
2021/03/17 07:16:38;;;;;;;10.73;2.50;;;;;;;1.45;77.94;102182.63;10044107;28;20058;-63
2021/03/17 07:22:06;;;;;;;7.95;2.65;;;;;;;1.60;77.58;102178.78;10041537;28;20051;-64
2021/03/17 07:27:21;;;;;;;14.57;3.55;;;;;;;1.84;76.67;102187.88;10052976;28;20051;-63
2021/03/17 07:32:17;;;;;;;11.30;2.72;;;;;;;1.77;76.57;102196.03;10055571;28;20102;-64
2021/03/17 07:37:14;;;;;;;13.25;3.28;;;;;;;1.83;76.56;102197.88;10050188;28;20051;-66
2021/03/17 07:42:12;;;;;;;10.95;2.85;;;;;;;1.98;76.34;102213.66;10056616;28;20055;-65
2021/03/17 07:47:11;;;;;;;14.35;3.50;;;;;;;2.02;77.01;102214.88;10050943;28;20048;-65
2021/03/17 07:52:18;;;;;;;13.85;4.30;;;;;;;2.09;76.16;102214.81;10050648;28;20048;-66
2021/03/17 07:57:15;;;;;;;14.90;3.88;;;;;;;2.20;76.71;102222.13;10041744;28;20459;-66
2021/03/17 08:02:12;;;;;;;13.82;3.92;;;;;;;2.31;76.44;102218.69;10055364;28;20078;-65
2021/03/17 08:07:11;;;;;;;14.50;4.40;;;;;;;2.15;76.97;102230.09;10058786;28;20130;-66
2021/03/17 08:12:09;;;;;;;11.65;3.90;;;;;;;2.34;76.22;102225.50;10042495;29;20130;-64
2021/03/17 08:17:09;;;;;;;13.07;4.28;;;;;;;2.49;75.70;102235.94;10048773;29;20047;-65
2021/03/17 08:22:07;;;;;;;13.95;4.93;;;;;;;2.35;76.25;102245.25;10041460;29;20047;-64
2021/03/17 08:27:06;;;;;;;16.70;4.80;;;;;;;2.55;76.62;102245.81;10054055;28;20086;-66
2021/03/17 08:32:03;;;;;;;14.10;4.35;;;;;;;2.36;76.31;102246.91;10049160;28;20495;-65
2021/03/17 08:37:03;;;;;;;19.02;5.03;;;;;;;2.56;75.78;102236.69;10049373;28;20126;-65
2021/03/17 08:42:03;;;;;;;16.48;4.90;;;;;;;2.69;75.40;102236.53;10043497;28;20039;-67
2021/03/17 08:47:27;;;;;;;17.38;5.03;;;;;;;2.88;75.48;102239.19;10045667;28;20067;-63
2021/03/17 08:52:38;;;;;;;12.88;4.68;;;;;;;2.94;75.98;102249.06;10051885;28;20055;-66
2021/03/17 08:58:01;;;;;;;15.50;4.55;;;;;;;3.00;74.81;102242.75;10052936;28;20047;-66
2021/03/17 09:02:57;;;;;;;17.38;5.22;;;;;;;3.32;75.35;102261.44;10048602;28;20046;-63
2021/03/17 09:08:05;;;;;;;18.52;5.45;;;;;;;3.44;74.17;102270.38;10058853;28;20486;-66
2021/03/17 09:13:01;;;;;;;17.25;5.75;;;;;;;3.29;74.70;102278.09;10056974;29;20055;-65
2021/03/17 09:17:57;;;;;;;14.30;5.32;;;;;;;3.64;73.85;102270.03;10048050;28;20102;-66
2021/03/17 09:23:03;;;;;;;15.32;5.85;;;;;;;3.93;73.20;102268.31;10053946;29;20443;-68
2021/03/17 09:28:02;;;;;;;18.60;5.57;;;;;;;3.75;72.30;102266.53;10054938;28;20098;-65
2021/03/17 09:33:03;;;;;;;17.70;5.78;;;;;;;4.07;71.76;102281.63;10050682;28;20039;-64
2021/03/17 09:38:04;;;;;;;23.98;6.43;;;;;;;4.18;71.72;102275.38;10039265;28;20044;-65
2021/03/17 09:43:01;;;;;;;16.05;5.18;;;;;;;4.46;71.88;102287.34;10048851;28;20059;-65
2021/03/17 09:47:57;;;;;;;15.43;5.85;;;;;;;4.25;70.82;102295.03;10057243;28;20566;-62
2021/03/17 09:52:53;;;;;;;13.95;5.50;;;;;;;4.39;70.81;102293.72;10065421;28;20672;-67
2021/03/17 09:58:00;;;;;;;19.13;6.05;;;;;;;4.72;69.46;102292.22;10055406;28;20511;-65
2021/03/17 10:02:58;;;;;;;17.38;5.13;;;;;;;4.41;70.43;102296.19;10062151;28;20095;-64
2021/03/17 10:07:55;;;;;;;15.77;5.65;;;;;;;4.38;70.86;102307.47;10059550;28;20053;-62
2021/03/17 10:12:51;;;;;;;17.02;6.40;;;;;;;4.55;70.29;102307.56;10062890;28;20103;-63
2021/03/17 10:17:49;;;;;;;16.52;6.15;;;;;;;4.90;70.86;102309.38;10059086;28;20055;-65
2021/03/17 10:22:46;;;;;;;13.77;5.57;;;;;;;4.78;70.70;102310.25;10055995;28;20043;-64
2021/03/17 10:27:45;;;;;;;13.05;5.20;;;;;;;5.03;70.42;102317.22;10061159;28;20079;-64
2021/03/17 10:32:44;;;;;;;13.95;5.43;;;;;;;5.40;70.06;102308.69;10049163;29;20488;-64
2021/03/17 10:37:45;;;;;;;14.00;6.50;;;;;;;5.83;70.27;102313.50;10049327;29;20091;-65
2021/03/17 10:42:46;;;;;;;16.30;6.55;;;;;;;5.99;68.02;102311.91;10057331;29;20075;-63
2021/03/17 10:47:44;;;;;;;20.50;7.53;;;;;;;6.41;66.31;102314.16;10050807;28;20051;-66
2021/03/17 10:52:48;;;;;;;15.15;6.88;;;;;;;6.39;65.29;102308.13;10048395;28;20106;-64
2021/03/17 10:57:45;;;;;;;15.77;5.90;;;;;;;6.51;65.50;102308.84;10037814;28;20585;-68
2021/03/17 11:02:43;;;;;;;11.32;6.05;;;;;;;6.80;64.65;102305.97;10057034;28;20043;-65
2021/03/17 11:07:52;;;;;;;12.98;5.95;;;;;;;7.10;64.55;102301.91;10053217;28;20081;-66
2021/03/17 11:12:48;;;;;;;14.88;5.57;;;;;;;7.44;63.03;102299.00;10052367;28;20051;-64
2021/03/17 11:17:51;;;;;;;13.43;5.25;;;;;;;7.73;61.82;102307.72;10047016;29;20050;-64
2021/03/17 11:22:48;;;;;;;14.35;4.95;;;;;;;8.04;62.51;102286.97;10058832;28;20047;-63
2021/03/17 11:27:44;;;;;;;12.63;4.88;;;;;;;8.52;58.89;102292.47;10042315;28;20500;-65
2021/03/17 11:32:40;;;;;;;10.70;4.35;;;;;;;8.94;57.06;102289.63;10046508;28;20058;-64
2021/03/17 11:37:36;;;;;;;11.02;3.58;;;;;;;9.38;56.07;102300.09;10055621;28;20098;-64
2021/03/17 11:42:32;;;;;;;8.68;3.47;;;;;;;9.97;52.07;102298.72;10049233;28;20047;-64
2021/03/17 11:47:39;;;;;;;12.88;4.10;;;;;;;9.53;51.49;102309.38;10046756;29;20137;-64
2021/03/17 11:52:35;;;;;;;8.23;4.28;;;;;;;10.31;51.83;102298.16;10060446;28;20043;-64
2021/03/17 11:57:31;;;;;;;7.88;3.60;;;;;;;9.75;52.62;102304.47;10035386;29;20039;-64
2021/03/17 12:02:28;;;;;;;8.32;2.72;;;;;;;9.43;50.35;102308.28;10043630;29;20048;-61
2021/03/17 12:07:27;;;;;;;5.70;2.75;;;;;;;10.37;48.29;102301.69;10052145;28;20051;-64
2021/03/17 12:12:23;;;;;;;5.75;2.47;;;;;;;11.63;48.59;102297.72;10039523;28;20487;-61
2021/03/17 12:17:19;;;;;;;7.45;2.97;;;;;;;11.74;43.58;102299.25;10048438;28;20065;-64
2021/03/17 12:22:15;;;;;;;9.65;2.90;;;;;;;13.41;43.84;102296.78;10049776;28;20495;-63
2021/03/17 12:27:11;;;;;;;8.10;2.70;;;;;;;14.21;39.33;102295.69;10042116;29;20043;-63
2021/03/17 12:32:07;;;;;;;6.15;2.78;;;;;;;14.04;37.39;102296.28;10050646;28;20063;-66
2021/03/17 12:37:04;;;;;;;6.13;2.30;;;;;;;14.40;35.25;102287.34;10052459;28;20053;-63
2021/03/17 12:42:00;;;;;;;5.93;2.35;;;;;;;14.30;35.20;102290.31;10059401;28;20488;-64
2021/03/17 12:46:57;;;;;;;9.38;3.03;;;;;;;15.90;34.30;102288.41;10049755;28;20075;-64
2021/03/17 12:51:53;;;;;;;11.32;3.17;;;;;;;15.74;38.58;102297.06;10058750;29;20134;-63
2021/03/17 12:56:50;;;;;;;6.70;2.30;;;;;;;13.65;35.04;102303.00;10039684;28;20099;-63
2021/03/17 13:01:46;;;;;;;5.10;2.42;;;;;;;12.03;36.38;102290.28;10057428;28;20039;-64
2021/03/17 13:06:42;;;;;;;5.60;2.03;;;;;;;11.55;39.76;102299.16;10047599;28;20051;-65
2021/03/17 13:11:38;;;;;;;5.28;2.10;;;;;;;10.83;41.23;102301.50;10049551;29;20066;-64
2021/03/17 13:16:35;;;;;;;6.32;2.80;;;;;;;10.71;42.95;102310.84;10055935;28;20079;-64
2021/03/17 13:21:32;;;;;;;5.95;2.78;;;;;;;12.37;42.90;102306.63;10051866;28;20047;-64
2021/03/17 13:26:28;;;;;;;5.40;2.38;;;;;;;12.87;38.41;102304.41;10058072;28;20079;-64
2021/03/17 13:31:24;;;;;;;6.07;2.70;;;;;;;12.79;39.56;102314.09;10059964;28;20055;-63
2021/03/17 13:36:20;;;;;;;6.47;2.67;;;;;;;12.21;40.79;102319.72;10059529;28;20102;-64
2021/03/17 13:41:16;;;;;;;8.45;2.78;;;;;;;11.59;42.43;102322.94;10062174;29;20479;-64
2021/03/17 13:46:13;;;;;;;9.73;2.63;;;;;;;10.92;48.10;102344.41;10060416;28;20510;-64
2021/03/17 13:51:10;;;;;;;6.68;2.40;;;;;;;10.38;49.59;102364.28;10065598;28;20412;-68
2021/03/17 13:56:06;;;;;;;4.82;2.40;;;;;;;9.78;51.68;102385.88;10060925;28;20043;-65
2021/03/17 14:01:03;;;;;;;8.88;2.60;;;;;;;9.41;50.77;102389.63;10051242;28;20131;-63
2021/03/17 14:05:59;;;;;;;5.40;2.75;;;;;;;9.22;53.19;102402.94;10063587;28;20760;-61
2021/03/17 14:10:55;;;;;;;4.22;1.98;;;;;;;8.90;54.73;102416.72;10054368;28;20085;-64
2021/03/17 14:15:52;;;;;;;5.85;2.58;;;;;;;8.59;57.76;102435.63;10059008;29;20058;-64
2021/03/17 14:20:48;;;;;;;4.97;1.90;;;;;;;8.63;57.06;102436.75;10058360;28;20055;-64
2021/03/17 14:25:44;;;;;;;5.07;2.40;;;;;;;8.11;58.50;102431.13;10062954;28;20074;-63
2021/03/17 14:30:40;;;;;;;4.95;1.88;;;;;;;8.31;56.39;102434.03;10049115;28;20106;-63
2021/03/17 14:35:36;;;;;;;6.97;1.90;;;;;;;8.42;57.02;102434.94;10047852;28;20047;-64
2021/03/17 14:40:33;;;;;;;3.83;1.60;;;;;;;8.78;53.63;102416.94;10045211;28;20054;-65
2021/03/17 14:45:29;;;;;;;3.97;1.40;;;;;;;9.02;52.76;102411.84;10054293;28;20044;-64
2021/03/17 14:50:25;;;;;;;4.15;1.50;;;;;;;8.97;51.64;102398.19;10057648;28;20419;-64
2021/03/17 14:55:22;;;;;;;3.28;1.13;;;;;;;8.84;49.15;102401.41;10048703;28;20055;-66
2021/03/17 15:00:18;;;;;;;3.50;1.60;;;;;;;8.47;51.79;102407.75;10061638;28;20047;-64
2021/03/17 15:05:15;;;;;;;3.72;1.30;;;;;;;8.37;51.12;102410.34;10063757;28;20051;-64
2021/03/17 15:10:14;;;;;;;3.92;1.67;;;;;;;8.47;52.67;102415.94;10061600;28;20055;-65
2021/03/17 15:15:11;;;;;;;3.45;1.48;;;;;;;8.21;52.62;102412.97;10042826;28;20075;-65
2021/03/17 15:20:10;;;;;;;2.65;1.10;;;;;;;7.75;54.42;102415.28;10061755;28;20051;-64
2021/03/17 15:25:07;;;;;;;3.95;1.38;;;;;;;7.77;54.13;102418.56;10050683;28;20047;-62
2021/03/17 15:30:05;;;;;;;3.75;1.15;;;;;;;8.08;52.75;102413.41;10047697;28;20047;-65
2021/03/17 15:35:06;;;;;;;5.90;1.90;;;;;;;8.31;51.39;102422.28;10055511;28;20048;-62
2021/03/17 15:40:04;;;;;;;3.95;1.67;;;;;;;8.80;51.13;102416.66;10064207;29;20055;-67
2021/03/17 15:45:00;;;;;;;3.95;1.52;;;;;;;9.09;50.26;102417.06;10057888;28;20051;-62
2021/03/17 15:49:56;;;;;;;3.95;1.58;;;;;;;9.68;46.94;102424.09;10054785;28;20054;-64
2021/03/17 15:54:52;;;;;;;3.67;1.58;;;;;;;10.15;47.06;102428.53;10047714;28;20058;-61
2021/03/17 15:59:48;;;;;;;6.32;1.83;;;;;;;10.91;44.86;102424.09;10052119;28;20053;-63
2021/03/17 16:04:44;;;;;;;4.15;1.10;;;;;;;10.47;41.90;102435.66;10052257;29;20044;-63
2021/03/17 16:09:40;;;;;;;4.05;1.63;;;;;;;11.09;43.66;102442.63;10058714;29;20054;-64
2021/03/17 16:14:36;;;;;;;5.35;1.70;;;;;;;11.59;43.11;102438.00;10052862;29;20055;-62
2021/03/17 16:19:32;;;;;;;4.85;1.98;;;;;;;11.77;41.08;102435.72;10054048;28;20062;-63
2021/03/17 16:24:28;;;;;;;4.32;1.67;;;;;;;11.63;42.05;102445.66;10048427;28;20057;-67
2021/03/17 16:29:25;;;;;;;3.60;1.50;;;;;;;11.37;41.46;102454.00;10047483;29;20417;-66
2021/03/17 16:34:21;;;;;;;3.50;1.30;;;;;;;10.70;43.21;102456.16;10046955;29;20104;-62
2021/03/17 16:39:17;;;;;;;3.30;1.63;;;;;;;10.30;44.38;102464.09;10053065;28;20530;-65
2021/03/17 16:44:13;;;;;;;4.45;1.65;;;;;;;9.34;42.36;102462.75;10059908;28;20043;-61
2021/03/17 16:49:09;;;;;;;4.68;1.80;;;;;;;8.91;42.81;102448.38;10034356;28;20052;-64
2021/03/17 16:54:05;;;;;;;3.35;1.20;;;;;;;8.91;45.44;102447.53;10046028;28;20050;-63
2021/03/17 16:59:13;;;;;;;4.03;1.00;;;;;;;8.52;45.42;102442.41;10048172;28;20817;-60
2021/03/17 17:04:09;;;;;;;6.20;1.42;;;;;;;8.38;46.96;102439.25;10047990;28;20044;-62
2021/03/17 17:09:05;;;;;;;5.35;1.40;;;;;;;8.22;47.38;102436.41;10027688;29;20139;-64
2021/03/17 17:14:02;;;;;;;3.08;1.20;;;;;;;8.02;49.71;102430.78;10042243;28;20181;-62
2021/03/17 17:18:58;;;;;;;4.38;1.73;;;;;;;7.92;48.55;102430.69;10043926;29;20095;-61
2021/03/17 17:23:54;;;;;;;5.55;1.58;;;;;;;7.75;51.40;102420.72;10056271;28;20872;-64
2021/03/17 17:28:51;;;;;;;9.05;1.80;;;;;;;7.48;52.67;102425.34;10058063;28;20062;-66
2021/03/17 17:33:47;;;;;;;3.58;1.40;;;;;;;7.29;52.61;102422.13;10060204;28;20047;-63
2021/03/17 17:38:43;;;;;;;3.05;1.17;;;;;;;7.12;52.44;102427.63;10047284;28;20091;-64
2021/03/17 17:43:39;;;;;;;3.65;1.63;;;;;;;6.89;53.77;102434.94;10057968;28;20039;-63
2021/03/17 17:48:36;;;;;;;4.10;1.70;;;;;;;6.68;54.28;102443.88;10053671;28;20055;-64
2021/03/17 17:53:32;;;;;;;5.30;1.27;;;;;;;6.41;56.00;102433.69;10055443;29;20055;-63
2021/03/17 17:58:28;;;;;;;6.38;2.42;;;;;;;6.35;54.88;102456.41;10059306;28;20058;-63
2021/03/17 18:03:25;;;;;;;5.07;2.38;;;;;;;6.20;56.13;102458.88;10052819;28;20052;-67
2021/03/17 18:08:21;;;;;;;5.05;1.95;;;;;;;6.06;56.73;102469.25;10063501;28;20055;-65
2021/03/17 18:13:18;;;;;;;6.25;2.30;;;;;;;5.96;56.74;102475.28;10057012;28;20043;-63
2021/03/17 18:18:15;;;;;;;7.90;2.40;;;;;;;5.94;56.42;102493.75;10054496;28;20051;-64
2021/03/17 18:23:13;;;;;;;5.82;2.88;;;;;;;5.98;57.35;102502.19;10059079;28;20503;-64
2021/03/17 18:28:09;;;;;;;6.03;2.80;;;;;;;5.90;57.88;102514.25;10057355;28;20043;-65
2021/03/17 18:33:05;;;;;;;8.70;3.08;;;;;;;5.93;59.18;102511.03;10056707;29;20058;-64
2021/03/17 18:38:02;;;;;;;8.35;2.83;;;;;;;5.86;59.17;102523.94;10048087;28;20078;-62
2021/03/17 18:42:59;;;;;;;7.90;2.95;;;;;;;5.74;59.63;102531.31;10049506;28;20106;-61
2021/03/17 18:47:56;;;;;;;9.43;3.25;;;;;;;5.78;59.89;102530.59;10056901;28;20109;-64
2021/03/17 18:52:52;;;;;;;10.30;3.40;;;;;;;5.63;60.68;102536.50;10057413;28;20035;-64
2021/03/17 18:57:49;;;;;;;6.18;2.75;;;;;;;5.65;60.69;102545.25;10060685;28;20130;-68
2021/03/17 19:02:46;;;;;;;6.13;3.13;;;;;;;5.49;62.24;102537.84;10052718;28;20047;-64
2021/03/17 19:07:43;;;;;;;8.32;4.30;;;;;;;5.46;61.64;102546.47;10051719;28;20077;-63
2021/03/17 19:12:39;;;;;;;7.95;3.60;;;;;;;5.39;61.25;102553.91;10056106;28;20110;-65
2021/03/17 19:17:37;;;;;;;9.88;4.18;;;;;;;5.32;62.16;102545.09;10046493;28;20047;-64
2021/03/17 19:22:33;;;;;;;9.32;4.85;;;;;;;5.39;60.87;102562.06;10058245;28;20418;-64
2021/03/17 19:27:29;;;;;;;9.80;4.50;;;;;;;5.30;61.16;102558.88;10059440;28;20051;-64
2021/03/17 19:32:25;;;;;;;7.68;4.30;;;;;;;5.05;62.71;102576.19;10056393;28;20047;-66
2021/03/17 19:37:21;;;;;;;12.80;6.40;;;;;;;5.12;62.50;102573.38;10042616;28;20051;-63
2021/03/17 19:42:17;;;;;;;11.60;5.53;;;;;;;5.00;62.17;102586.09;10053158;29;20052;-63
2021/03/17 19:47:25;;;;;;;10.30;4.45;;;;;;;4.83;62.73;102592.22;10053357;28;20054;-66
2021/03/17 19:52:22;;;;;;;8.95;4.45;;;;;;;4.78;62.68;102589.38;10044475;28;20118;-63
2021/03/17 19:57:18;;;;;;;7.35;3.65;;;;;;;4.74;62.90;102582.78;10047334;28;20043;-63
2021/03/17 20:02:15;;;;;;;12.23;3.90;;;;;;;4.72;63.87;102584.88;10057657;28;20684;-64
2021/03/17 20:07:12;;;;;;;6.13;3.53;;;;;;;4.68;63.63;102583.69;10050429;29;20661;-65
2021/03/17 20:12:08;;;;;;;9.68;3.90;;;;;;;4.61;64.03;102572.13;10053926;28;20090;-65
2021/03/17 20:17:04;;;;;;;7.40;3.80;;;;;;;4.57;64.85;102565.53;10059874;28;20514;-64
2021/03/17 20:22:00;;;;;;;7.75;4.30;;;;;;;4.49;64.94;102579.41;10048713;28;20048;-63
2021/03/17 20:26:56;;;;;;;11.38;4.18;;;;;;;4.47;64.80;102570.69;10051790;28;20043;-65
2021/03/17 20:31:52;;;;;;;10.23;5.45;;;;;;;4.35;64.72;102573.38;10041574;28;20051;-64
2021/03/17 20:36:49;;;;;;;12.07;6.25;;;;;;;4.33;65.11;102561.94;10051370;28;20050;-64
2021/03/17 20:41:45;;;;;;;12.30;5.80;;;;;;;4.20;65.51;102560.22;10050120;28;20744;-64
2021/03/17 20:46:41;;;;;;;9.48;4.25;;;;;;;4.24;65.26;102561.44;10041678;28;20079;-65
2021/03/17 20:51:37;;;;;;;12.45;5.63;;;;;;;4.27;65.73;102560.13;10060954;28;20055;-65
2021/03/17 20:56:34;;;;;;;14.50;6.45;;;;;;;4.28;65.69;102554.50;10044956;28;20443;-64
2021/03/17 21:01:30;;;;;;;13.88;6.30;;;;;;;4.12;65.97;102564.09;10058745;28;20055;-64
2021/03/17 21:06:28;;;;;;;12.63;6.35;;;;;;;4.04;66.15;102560.88;10044129;29;20114;-65
2021/03/17 21:11:25;;;;;;;13.98;6.82;;;;;;;3.97;66.50;102558.28;10046531;28;20056;-63
2021/03/17 21:16:21;;;;;;;11.65;5.07;;;;;;;3.88;67.18;102556.94;10047409;28;20510;-62
2021/03/17 21:21:17;;;;;;;11.13;5.03;;;;;;;3.84;66.97;102567.38;10043932;28;20059;-65
2021/03/17 21:26:13;;;;;;;8.45;4.47;;;;;;;3.88;67.39;102549.63;10049928;28;20141;-64
2021/03/17 21:31:09;;;;;;;10.43;5.10;;;;;;;3.89;67.21;102551.28;10050624;28;20078;-67
2021/03/17 21:36:05;;;;;;;8.95;4.95;;;;;;;3.82;67.34;102547.84;10049684;28;20458;-62
2021/03/17 21:41:02;;;;;;;15.10;5.22;;;;;;;3.74;67.72;102546.28;10048895;28;20538;-64
2021/03/17 21:45:59;;;;;;;10.52;5.63;;;;;;;3.68;68.04;102546.34;10060362;28;20485;-64
2021/03/17 21:51:01;;;;;;;11.27;5.90;;;;;;;3.72;68.31;102531.31;10060668;28;20568;-64
2021/03/17 21:55:57;;;;;;;11.00;5.65;;;;;;;3.61;68.84;102537.50;10047811;28;20490;-64
2021/03/17 22:00:55;;;;;;;11.25;6.13;;;;;;;3.68;68.45;102540.94;10062845;28;20453;-66
2021/03/17 22:05:52;;;;;;;11.43;5.68;;;;;;;3.65;69.04;102541.41;10052922;28;20055;-66
2021/03/17 22:10:48;;;;;;;10.50;6.35;;;;;;;3.66;68.83;102540.34;10057138;28;20042;-67
2021/03/17 22:15:45;;;;;;;11.68;6.75;;;;;;;3.73;69.34;102535.66;10058876;28;20044;-68
2021/03/17 22:20:41;;;;;;;14.95;8.77;;;;;;;3.78;69.43;102531.25;10058308;28;20058;-67
2021/03/17 22:25:40;;;;;;;14.95;7.05;;;;;;;3.76;69.46;102532.50;10059282;28;20047;-68
2021/03/17 22:30:39;;;;;;;12.07;6.68;;;;;;;3.74;69.59;102534.63;10052811;29;20083;-67
2021/03/17 22:35:36;;;;;;;16.65;8.95;;;;;;;3.70;70.32;102528.84;10064932;28;20047;-67
2021/03/17 22:40:32;;;;;;;12.50;7.97;;;;;;;3.69;70.29;102516.38;10048859;28;20101;-67
2021/03/17 22:45:28;;;;;;;12.05;7.72;;;;;;;3.70;70.91;102517.19;10061126;28;20052;-67
2021/03/17 22:50:29;;;;;;;10.98;7.47;;;;;;;3.71;71.00;102513.41;10052020;28;20459;-67
2021/03/17 22:55:26;;;;;;;12.25;7.40;;;;;;;3.71;71.09;102508.00;10058558;28;20102;-67